sensor_id;sensor_type;location;lat;lon;timestamp;pressure;altitude;pressure_sealevel;temperature;humidity
11053;BME280;55230;42.602;23.470;2022-10-26T00:01:29;93990.06;;;14.01;84.34
11053;BME280;55230;42.602;23.470;2022-10-26T00:03:56;93988.22;;;14.07;83.89
11053;BME280;55230;42.602;23.470;2022-10-26T00:06:24;93993.66;;;14.07;84.16
11053;BME280;55230;42.602;23.470;2022-10-26T00:08:52;93990.34;;;14.03;84.50
11053;BME280;55230;42.602;23.470;2022-10-26T00:11:20;93901.03;;;13.49;83.92
11053;BME280;55230;42.602;23.470;2022-10-26T00:13:47;93661.47;;;11.31;83.93
11053;BME280;55230;42.602;23.470;2022-10-26T00:16:15;93992.47;;;13.99;83.90
11053;BME280;55230;42.602;23.470;2022-10-26T00:18:44;93985.84;;;13.91;84.41
11053;BME280;55230;42.602;23.470;2022-10-26T00:21:12;93707.78;;;11.96;84.31
11053;BME280;55230;42.602;23.470;2022-10-26T00:23:39;93983.19;;;13.82;84.98
11053;BME280;55230;42.602;23.470;2022-10-26T00:26:06;93986.50;;;13.77;84.97
11053;BME280;55230;42.602;23.470;2022-10-26T00:28:33;93988.91;;;13.75;85.14
11053;BME280;55230;42.602;23.470;2022-10-26T00:31:00;93976.75;;;13.61;85.31
11053;BME280;55230;42.602;23.470;2022-10-26T00:33:27;93865.25;;;12.45;85.23
11053;BME280;55230;42.602;23.470;2022-10-26T00:35:57;93959.00;;;13.33;85.18
11053;BME280;55230;42.602;23.470;2022-10-26T00:38:24;93979.31;;;13.47;85.42
11053;BME280;55230;42.602;23.470;2022-10-26T00:40:50;93989.84;;;13.54;85.75
11053;BME280;55230;42.602;23.470;2022-10-26T00:43:33;93547.97;;;10.59;85.52
11053;BME280;55230;42.602;23.470;2022-10-26T00:46:02;93989.53;;;13.43;86.29
11053;BME280;55230;42.602;23.470;2022-10-26T00:48:34;93469.06;;;9.88;85.73
11053;BME280;55230;42.602;23.470;2022-10-26T00:51:07;93990.88;;;13.29;87.08
11053;BME280;55230;42.602;23.470;2022-10-26T00:53:35;93991.63;;;13.12;87.05
11053;BME280;55230;42.602;23.470;2022-10-26T00:56:03;93987.44;;;13.20;87.22
11053;BME280;55230;42.602;23.470;2022-10-26T00:58:30;93990.13;;;13.11;88.12
11053;BME280;55230;42.602;23.470;2022-10-26T01:00:57;93985.34;;;13.15;88.07
11053;BME280;55230;42.602;23.470;2022-10-26T01:03:25;93781.44;;;11.30;87.91
11053;BME280;55230;42.602;23.470;2022-10-26T01:05:56;93981.09;;;13.05;88.72
11053;BME280;55230;42.602;23.470;2022-10-26T01:08:24;93714.25;;;11.23;88.48
11053;BME280;55230;42.602;23.470;2022-10-26T01:10:52;93982.75;;;13.20;87.96
11053;BME280;55230;42.602;23.470;2022-10-26T01:13:20;93793.81;;;11.98;87.92
11053;BME280;55230;42.602;23.470;2022-10-26T01:15:50;93834.72;;;12.18;87.61
11053;BME280;55230;42.602;23.470;2022-10-26T01:18:28;93977.06;;;13.09;87.69
11053;BME280;55230;42.602;23.470;2022-10-26T01:24:09;93974.91;;;12.95;88.37
11053;BME280;55230;42.602;23.470;2022-10-26T01:26:54;93973.38;;;12.85;88.94
11053;BME280;55230;42.602;23.470;2022-10-26T01:29:41;93941.06;;;12.24;88.89
11053;BME280;55230;42.602;23.470;2022-10-26T01:32:16;93971.88;;;12.84;88.73
11053;BME280;55230;42.602;23.470;2022-10-26T01:34:48;93933.34;;;12.53;89.03
11053;BME280;55230;42.602;23.470;2022-10-26T01:37:21;93794.75;;;11.55;89.23
11053;BME280;55230;42.602;23.470;2022-10-26T01:39:53;93847.28;;;11.94;89.58
11053;BME280;55230;42.602;23.470;2022-10-26T01:42:21;93971.72;;;12.78;89.50
11053;BME280;55230;42.602;23.470;2022-10-26T01:44:52;93969.44;;;12.77;89.58
11053;BME280;55230;42.602;23.470;2022-10-26T01:47:24;93908.81;;;12.38;89.50
11053;BME280;55230;42.602;23.470;2022-10-26T01:49:55;93969.31;;;12.71;89.92
11053;BME280;55230;42.602;23.470;2022-10-26T01:52:23;93970.19;;;12.68;90.23
11053;BME280;55230;42.602;23.470;2022-10-26T01:54:50;93968.53;;;12.62;90.32
11053;BME280;55230;42.602;23.470;2022-10-26T01:57:19;93994.69;;;12.56;90.75
11053;BME280;55230;42.602;23.470;2022-10-26T01:59:57;93963.09;;;12.53;91.42
11053;BME280;55230;42.602;23.470;2022-10-26T02:02:54;93962.94;;;12.56;91.51
11053;BME280;55230;42.602;23.470;2022-10-26T02:05:35;93870.72;;;11.97;91.45
11053;BME280;55230;42.602;23.470;2022-10-26T02:08:30;93973.63;;;12.60;91.61
11053;BME280;55230;42.602;23.470;2022-10-26T02:11:10;93989.19;;;12.38;91.53
11053;BME280;55230;42.602;23.470;2022-10-26T02:13:45;93963.09;;;12.44;91.70
11053;BME280;55230;42.602;23.470;2022-10-26T02:16:19;93961.41;;;12.46;91.61
11053;BME280;55230;42.602;23.470;2022-10-26T02:18:55;93494.47;;;9.13;91.86
11053;BME280;55230;42.602;23.470;2022-10-26T02:21:29;93634.19;;;10.19;91.65
11053;BME280;55230;42.602;23.470;2022-10-26T02:23:57;93636.09;;;9.97;91.54
11053;BME280;55230;42.602;23.470;2022-10-26T02:26:27;93974.53;;;12.17;92.83
11053;BME280;55230;42.602;23.470;2022-10-26T02:28:58;93973.50;;;12.15;92.70
11053;BME280;55230;42.602;23.470;2022-10-26T02:31:26;93975.09;;;12.03;93.44
11053;BME280;55230;42.602;23.470;2022-10-26T02:33:56;93582.81;;;8.68;93.22
11053;BME280;55230;42.602;23.470;2022-10-26T02:36:28;93946.88;;;11.30;94.16
11053;BME280;55230;42.602;23.470;2022-10-26T02:38:56;93899.59;;;11.26;94.86
11053;BME280;55230;42.602;23.470;2022-10-26T02:41:25;93975.53;;;11.71;95.22
11053;BME280;55230;42.602;23.470;2022-10-26T02:43:56;93974.91;;;11.67;95.43
11053;BME280;55230;42.602;23.470;2022-10-26T02:46:26;93983.22;;;11.60;95.82
11053;BME280;55230;42.602;23.470;2022-10-26T02:48:55;93990.81;;;11.31;96.31
11053;BME280;55230;42.602;23.470;2022-10-26T02:51:29;93983.72;;;11.46;96.93
11053;BME280;55230;42.602;23.470;2022-10-26T02:54:06;93917.50;;;11.11;97.65
11053;BME280;55230;42.602;23.470;2022-10-26T02:56:42;93888.47;;;10.59;99.24
11053;BME280;55230;42.602;23.470;2022-10-26T02:59:12;93979.25;;;11.30;100.00
11053;BME280;55230;42.602;23.470;2022-10-26T03:01:40;93979.09;;;11.25;100.00
11053;BME280;55230;42.602;23.470;2022-10-26T03:04:09;93983.03;;;11.33;100.00
11053;BME280;55230;42.602;23.470;2022-10-26T03:06:36;93847.19;;;10.49;100.00
11053;BME280;55230;42.602;23.470;2022-10-26T03:09:03;93986.44;;;11.46;100.00
11053;BME280;55230;42.602;23.470;2022-10-26T03:11:29;93928.78;;;10.97;100.00
11053;BME280;55230;42.602;23.470;2022-10-26T03:13:56;93982.31;;;11.54;100.00
11053;BME280;55230;42.602;23.470;2022-10-26T03:16:24;93193.88;;;6.10;100.00
11053;BME280;55230;42.602;23.470;2022-10-26T03:18:50;93934.06;;;11.00;100.00
11053;BME280;55230;42.602;23.470;2022-10-26T03:21:19;93892.94;;;10.75;100.00
11053;BME280;55230;42.602;23.470;2022-10-26T03:23:45;93999.13;;;11.36;100.00
11053;BME280;55230;42.602;23.470;2022-10-26T03:26:13;93947.34;;;10.61;100.00
11053;BME280;55230;42.602;23.470;2022-10-26T03:28:39;93979.94;;;11.22;100.00
11053;BME280;55230;42.602;23.470;2022-10-26T03:31:07;94006.91;;;11.34;100.00
11053;BME280;55230;42.602;23.470;2022-10-26T03:33:33;93940.06;;;10.83;100.00
11053;BME280;55230;42.602;23.470;2022-10-26T03:36:00;94003.88;;;11.32;100.00
11053;BME280;55230;42.602;23.470;2022-10-26T03:38:28;94001.78;;;11.15;100.00
11053;BME280;55230;42.602;23.470;2022-10-26T03:40:55;93899.44;;;10.30;100.00
11053;BME280;55230;42.602;23.470;2022-10-26T03:43:22;93969.41;;;10.81;100.00
11053;BME280;55230;42.602;23.470;2022-10-26T03:45:49;93776.28;;;9.34;100.00
11053;BME280;55230;42.602;23.470;2022-10-26T03:48:15;93583.31;;;7.59;100.00
11053;BME280;55230;42.602;23.470;2022-10-26T03:50:42;94015.69;;;11.26;100.00
11053;BME280;55230;42.602;23.470;2022-10-26T03:53:09;94000.84;;;11.09;100.00
11053;BME280;55230;42.602;23.470;2022-10-26T03:55:38;93839.44;;;9.17;100.00
11053;BME280;55230;42.602;23.470;2022-10-26T03:58:04;94009.66;;;11.22;100.00
11053;BME280;55230;42.602;23.470;2022-10-26T04:00:31;93743.97;;;9.34;100.00
11053;BME280;55230;42.602;23.470;2022-10-26T04:02:59;93958.00;;;10.77;100.00
11053;BME280;55230;42.602;23.470;2022-10-26T04:05:27;94011.78;;;11.27;100.00
11053;BME280;55230;42.602;23.470;2022-10-26T04:07:55;93585.06;;;8.44;100.00
11053;BME280;55230;42.602;23.470;2022-10-26T04:10:22;93832.09;;;10.18;100.00
11053;BME280;55230;42.602;23.470;2022-10-26T04:12:50;94018.78;;;11.37;100.00
11053;BME280;55230;42.602;23.470;2022-10-26T04:15:18;93624.03;;;8.11;100.00
11053;BME280;55230;42.602;23.470;2022-10-26T04:17:45;94017.81;;;11.31;100.00
11053;BME280;55230;42.602;23.470;2022-10-26T04:20:12;94012.47;;;11.18;100.00
11053;BME280;55230;42.602;23.470;2022-10-26T04:22:39;94004.09;;;11.04;100.00
11053;BME280;55230;42.602;23.470;2022-10-26T04:25:06;94021.09;;;11.26;100.00
11053;BME280;55230;42.602;23.470;2022-10-26T04:27:35;94019.53;;;11.37;100.00
11053;BME280;55230;42.602;23.470;2022-10-26T04:30:04;93937.47;;;10.79;100.00
11053;BME280;55230;42.602;23.470;2022-10-26T04:32:34;93748.72;;;9.05;100.00
11053;BME280;55230;42.602;23.470;2022-10-26T04:35:01;94014.19;;;11.25;100.00
11053;BME280;55230;42.602;23.470;2022-10-26T04:37:27;93860.44;;;10.10;100.00
11053;BME280;55230;42.602;23.470;2022-10-26T04:39:54;94016.94;;;11.34;100.00
11053;BME280;55230;42.602;23.470;2022-10-26T04:42:21;94021.94;;;11.35;100.00
11053;BME280;55230;42.602;23.470;2022-10-26T04:44:48;94007.16;;;11.27;100.00
11053;BME280;55230;42.602;23.470;2022-10-26T04:47:16;93843.09;;;10.11;100.00
11053;BME280;55230;42.602;23.470;2022-10-26T04:49:43;94030.31;;;11.37;100.00
11053;BME280;55230;42.602;23.470;2022-10-26T04:52:09;93968.69;;;11.02;100.00
11053;BME280;55230;42.602;23.470;2022-10-26T04:54:36;93904.78;;;10.56;100.00
11053;BME280;55230;42.602;23.470;2022-10-26T04:57:03;94026.75;;;11.40;100.00
11053;BME280;55230;42.602;23.470;2022-10-26T04:59:30;93899.94;;;10.51;100.00
11053;BME280;55230;42.602;23.470;2022-10-26T05:01:56;94033.28;;;11.52;100.00
11053;BME280;55230;42.602;23.470;2022-10-26T05:04:24;94036.63;;;11.56;100.00
11053;BME280;55230;42.602;23.470;2022-10-26T05:06:51;93498.00;;;7.25;100.00
11053;BME280;55230;42.602;23.470;2022-10-26T05:09:18;94039.13;;;11.50;100.00
11053;BME280;55230;42.602;23.470;2022-10-26T05:11:45;94047.00;;;11.79;100.00
11053;BME280;55230;42.602;23.470;2022-10-26T05:14:12;94065.84;;;11.70;100.00
11053;BME280;55230;42.602;23.470;2022-10-26T05:16:38;93923.88;;;10.83;100.00
11053;BME280;55230;42.602;23.470;2022-10-26T05:19:05;94010.03;;;11.33;100.00
11053;BME280;55230;42.602;23.470;2022-10-26T05:21:33;94044.63;;;11.81;100.00
11053;BME280;55230;42.602;23.470;2022-10-26T05:24:00;94047.16;;;11.97;100.00
11053;BME280;55230;42.602;23.470;2022-10-26T05:26:27;93523.13;;;7.97;100.00
11053;BME280;55230;42.602;23.470;2022-10-26T05:28:54;93881.66;;;10.89;100.00
11053;BME280;55230;42.602;23.470;2022-10-26T05:31:20;93696.94;;;9.85;100.00
11053;BME280;55230;42.602;23.470;2022-10-26T05:33:48;93760.53;;;10.60;100.00
11053;BME280;55230;42.602;23.470;2022-10-26T05:36:16;94068.41;;;12.78;100.00
11053;BME280;55230;42.602;23.470;2022-10-26T05:38:44;94058.75;;;12.77;100.00
11053;BME280;55230;42.602;23.470;2022-10-26T05:41:11;93573.22;;;9.69;100.00
11053;BME280;55230;42.602;23.470;2022-10-26T05:43:38;94069.28;;;13.24;99.25
11053;BME280;55230;42.602;23.470;2022-10-26T05:46:05;93942.06;;;11.99;100.00
11053;BME280;55230;42.602;23.470;2022-10-26T05:48:32;93911.69;;;11.95;100.00
11053;BME280;55230;42.602;23.470;2022-10-26T05:50:59;94094.78;;;12.96;100.00
11053;BME280;55230;42.602;23.470;2022-10-26T05:53:26;93986.41;;;12.59;100.00
11053;BME280;55230;42.602;23.470;2022-10-26T05:55:55;94055.94;;;12.90;98.85
11053;BME280;55230;42.602;23.470;2022-10-26T05:58:22;94093.41;;;13.49;98.61
11053;BME280;55230;42.602;23.470;2022-10-26T06:00:59;94009.84;;;13.20;96.40
11053;BME280;55230;42.602;23.470;2022-10-26T06:03:37;94148.66;;;13.87;94.31
11053;BME280;55230;42.602;23.470;2022-10-26T06:06:10;94076.22;;;13.97;92.84
11053;BME280;55230;42.602;23.470;2022-10-26T06:08:39;94115.63;;;14.52;92.32
11053;BME280;55230;42.602;23.470;2022-10-26T06:11:09;94104.47;;;14.50;91.24
11053;BME280;55230;42.602;23.470;2022-10-26T06:13:37;93995.50;;;13.83;90.75
11053;BME280;55230;42.602;23.470;2022-10-26T06:16:17;94027.25;;;14.01;89.73
11053;BME280;55230;42.602;23.470;2022-10-26T06:18:54;94027.72;;;13.99;89.46
11053;BME280;55230;42.602;23.470;2022-10-26T06:21:36;94114.13;;;14.51;89.84
11053;BME280;55230;42.602;23.470;2022-10-26T06:24:11;93513.78;;;10.46;89.57
11053;BME280;55230;42.602;23.470;2022-10-26T06:26:47;94119.75;;;14.30;90.71
11053;BME280;55230;42.602;23.470;2022-10-26T06:29:24;94118.25;;;14.11;92.14
11053;BME280;55230;42.602;23.470;2022-10-26T06:31:53;94122.63;;;14.35;91.45
11053;BME280;55230;42.602;23.470;2022-10-26T06:34:24;94118.88;;;14.74;89.75
11053;BME280;55230;42.602;23.470;2022-10-26T06:36:53;94125.25;;;14.71;88.56
11053;BME280;55230;42.602;23.470;2022-10-26T06:39:24;93849.16;;;12.96;88.45
11053;BME280;55230;42.602;23.470;2022-10-26T06:41:55;94014.13;;;14.08;87.50
11053;BME280;55230;42.602;23.470;2022-10-26T06:44:23;93995.50;;;13.83;88.18
11053;BME280;55230;42.602;23.470;2022-10-26T06:46:55;94130.69;;;14.62;87.56
11053;BME280;55230;42.602;23.470;2022-10-26T06:49:29;94067.28;;;14.42;87.46
11053;BME280;55230;42.602;23.470;2022-10-26T06:51:58;93597.59;;;11.37;86.94
11053;BME280;55230;42.602;23.470;2022-10-26T06:54:34;94125.59;;;15.30;86.28
11053;BME280;55230;42.602;23.470;2022-10-26T06:57:10;94108.75;;;15.17;84.75
11053;BME280;55230;42.602;23.470;2022-10-26T06:59:43;93767.13;;;12.63;86.45
11053;BME280;55230;42.602;23.470;2022-10-26T07:02:11;94138.78;;;14.80;88.27
11053;BME280;55230;42.602;23.470;2022-10-26T07:04:38;94134.00;;;14.66;88.95
11053;BME280;55230;42.602;23.470;2022-10-26T07:07:05;94095.50;;;14.26;88.57
11053;BME280;55230;42.602;23.470;2022-10-26T07:09:32;93678.88;;;11.39;88.65
11053;BME280;55230;42.602;23.470;2022-10-26T07:11:59;94136.56;;;14.70;88.65
11053;BME280;55230;42.602;23.470;2022-10-26T07:14:27;94144.56;;;14.64;88.82
11053;BME280;55230;42.602;23.470;2022-10-26T07:16:54;94143.22;;;14.60;88.82
11053;BME280;55230;42.602;23.470;2022-10-26T07:19:21;94146.50;;;14.64;89.18
11053;BME280;55230;42.602;23.470;2022-10-26T07:21:48;94079.50;;;14.10;88.44
11053;BME280;55230;42.602;23.470;2022-10-26T07:24:15;94041.75;;;13.98;89.49
11053;BME280;55230;42.602;23.470;2022-10-26T07:26:42;94132.09;;;14.49;88.98
11053;BME280;55230;42.602;23.470;2022-10-26T07:29:08;94134.31;;;14.68;87.75
11053;BME280;55230;42.602;23.470;2022-10-26T07:31:37;94104.19;;;14.48;88.32
11053;BME280;55230;42.602;23.470;2022-10-26T07:34:03;94135.44;;;14.85;87.81
11053;BME280;55230;42.602;23.470;2022-10-26T07:36:30;94131.16;;;15.02;86.65
11053;BME280;55230;42.602;23.470;2022-10-26T07:38:58;94127.78;;;15.17;86.75
11053;BME280;55230;42.602;23.470;2022-10-26T07:41:24;94133.84;;;15.12;85.61
11053;BME280;55230;42.602;23.470;2022-10-26T07:43:51;94041.13;;;14.53;85.14
11053;BME280;55230;42.602;23.470;2022-10-26T07:46:18;94135.00;;;15.20;85.88
11053;BME280;55230;42.602;23.470;2022-10-26T07:48:46;94130.84;;;15.33;85.12
11053;BME280;55230;42.602;23.470;2022-10-26T07:51:13;94138.66;;;15.49;83.79
11053;BME280;55230;42.602;23.470;2022-10-26T07:53:40;94185.50;;;15.68;84.37
11053;BME280;55230;42.602;23.470;2022-10-26T07:56:07;94067.13;;;15.34;82.54
11053;BME280;55230;42.602;23.470;2022-10-26T07:58:35;94074.47;;;15.19;81.66
11053;BME280;55230;42.602;23.470;2022-10-26T08:01:05;94141.16;;;16.00;80.64
11053;BME280;55230;42.602;23.470;2022-10-26T08:03:32;94145.69;;;16.03;79.30
11053;BME280;55230;42.602;23.470;2022-10-26T08:06:00;94087.47;;;15.86;79.12
11053;BME280;55230;42.602;23.470;2022-10-26T08:08:29;94099.19;;;15.54;79.01
11053;BME280;55230;42.602;23.470;2022-10-26T08:10:56;94069.94;;;15.87;78.23
11053;BME280;55230;42.602;23.470;2022-10-26T08:13:24;94039.34;;;15.77;77.22
11053;BME280;55230;42.602;23.470;2022-10-26T08:15:55;94144.56;;;16.62;77.11
11053;BME280;55230;42.602;23.470;2022-10-26T08:18:22;93934.59;;;14.91;76.15
11053;BME280;55230;42.602;23.470;2022-10-26T08:20:49;94136.22;;;16.51;77.10
11053;BME280;55230;42.602;23.470;2022-10-26T08:23:17;93677.84;;;13.70;75.22
11053;BME280;55230;42.602;23.470;2022-10-26T08:25:44;93987.69;;;15.92;76.55
11053;BME280;55230;42.602;23.470;2022-10-26T08:28:10;94140.38;;;17.10;74.00
11053;BME280;55230;42.602;23.470;2022-10-26T08:30:37;94047.38;;;16.68;73.57
11053;BME280;55230;42.602;23.470;2022-10-26T08:33:06;94123.44;;;17.36;73.07
11053;BME280;55230;42.602;23.470;2022-10-26T08:35:33;94132.34;;;17.36;72.69
11053;BME280;55230;42.602;23.470;2022-10-26T08:38:00;94073.50;;;16.95;71.82
11053;BME280;55230;42.602;23.470;2022-10-26T08:40:31;93695.22;;;14.25;70.69
11053;BME280;55230;42.602;23.470;2022-10-26T08:43:03;94103.84;;;17.17;71.15
11053;BME280;55230;42.602;23.470;2022-10-26T08:45:34;94064.56;;;17.09;70.67
11053;BME280;55230;42.602;23.470;2022-10-26T08:48:09;94095.81;;;17.28;69.69
11053;BME280;55230;42.602;23.470;2022-10-26T08:50:40;93777.06;;;15.15;67.94
11053;BME280;55230;42.602;23.470;2022-10-26T08:53:14;94105.34;;;17.73;64.75
11053;BME280;55230;42.602;23.470;2022-10-26T08:55:47;94092.47;;;17.73;57.70
11053;BME280;55230;42.602;23.470;2022-10-26T08:58:20;93916.09;;;16.64;57.93
11053;BME280;55230;42.602;23.470;2022-10-26T09:00:49;94124.94;;;18.37;58.18
11053;BME280;55230;42.602;23.470;2022-10-26T09:03:17;93953.88;;;17.11;54.98
11053;BME280;55230;42.602;23.470;2022-10-26T09:05:52;94127.06;;;18.48;53.88
11053;BME280;55230;42.602;23.470;2022-10-26T09:08:28;93844.34;;;16.67;51.78
11053;BME280;55230;42.602;23.470;2022-10-26T09:11:06;94131.50;;;18.45;50.48
11053;BME280;55230;42.602;23.470;2022-10-26T09:13:42;94129.22;;;18.69;51.99
11053;BME280;55230;42.602;23.470;2022-10-26T09:16:21;94125.75;;;18.94;51.32
11053;BME280;55230;42.602;23.470;2022-10-26T09:18:55;94054.38;;;18.56;49.58
11053;BME280;55230;42.602;23.470;2022-10-26T09:21:39;93959.31;;;18.03;47.90
11053;BME280;55230;42.602;23.470;2022-10-26T09:24:13;94133.50;;;19.01;47.00
11053;BME280;55230;42.602;23.470;2022-10-26T09:26:52;94130.66;;;19.21;47.21
11053;BME280;55230;42.602;23.470;2022-10-26T09:29:23;94091.41;;;18.88;50.33
11053;BME280;55230;42.602;23.470;2022-10-26T09:31:50;94118.59;;;19.33;49.55
11053;BME280;55230;42.602;23.470;2022-10-26T09:34:25;94119.28;;;19.65;47.07
11053;BME280;55230;42.602;23.470;2022-10-26T09:36:54;94119.75;;;19.58;48.16
11053;BME280;55230;42.602;23.470;2022-10-26T09:39:27;94124.56;;;19.32;48.46
11053;BME280;55230;42.602;23.470;2022-10-26T09:42:01;94071.75;;;19.20;50.70
11053;BME280;55230;42.602;23.470;2022-10-26T09:44:35;94108.09;;;19.69;49.33
11053;BME280;55230;42.602;23.470;2022-10-26T09:47:10;94081.78;;;18.98;49.07
11053;BME280;55230;42.602;23.470;2022-10-26T09:49:44;94126.34;;;19.40;47.04
11053;BME280;55230;42.602;23.470;2022-10-26T09:52:13;94120.91;;;19.46;48.05
11053;BME280;55230;42.602;23.470;2022-10-26T09:54:40;94126.53;;;19.31;49.15
11053;BME280;55230;42.602;23.470;2022-10-26T09:57:09;94036.63;;;18.71;49.65
11053;BME280;55230;42.602;23.470;2022-10-26T09:59:40;94115.72;;;19.48;48.39
11053;BME280;55230;42.602;23.470;2022-10-26T10:02:33;94117.06;;;19.75;48.65
11053;BME280;55230;42.602;23.470;2022-10-26T10:05:00;94069.16;;;19.96;45.79
11053;BME280;55230;42.602;23.470;2022-10-26T10:07:27;94033.03;;;19.92;45.31
11053;BME280;55230;42.602;23.470;2022-10-26T10:10:08;94114.88;;;20.43;46.17
11053;BME280;55230;42.602;23.470;2022-10-26T10:12:39;94095.88;;;20.17;46.09
11053;BME280;55230;42.602;23.470;2022-10-26T10:15:16;94098.91;;;20.30;45.74
11053;BME280;55230;42.602;23.470;2022-10-26T10:17:47;94100.50;;;19.95;45.87
11053;BME280;55230;42.602;23.470;2022-10-26T10:20:18;93877.00;;;18.47;45.73
11053;BME280;55230;42.602;23.470;2022-10-26T10:22:56;93994.09;;;19.01;46.19
11053;BME280;55230;42.602;23.470;2022-10-26T10:25:31;94050.97;;;19.34;45.23
11053;BME280;55230;42.602;23.470;2022-10-26T10:28:00;94089.25;;;19.82;45.16
11053;BME280;55230;42.602;23.470;2022-10-26T10:30:29;94060.38;;;19.75;45.52
11053;BME280;55230;42.602;23.470;2022-10-26T10:33:06;94088.69;;;20.31;45.70
11053;BME280;55230;42.602;23.470;2022-10-26T10:35:33;94088.84;;;20.11;44.84
11053;BME280;55230;42.602;23.470;2022-10-26T10:38:00;94011.78;;;19.59;45.79
11053;BME280;55230;42.602;23.470;2022-10-26T10:40:29;94061.25;;;19.55;46.25
11053;BME280;55230;42.602;23.470;2022-10-26T10:43:06;94037.22;;;19.71;46.31
11053;BME280;55230;42.602;23.470;2022-10-26T10:45:37;94041.06;;;19.42;46.44
11053;BME280;55230;42.602;23.470;2022-10-26T10:48:13;94069.28;;;19.65;47.88
11053;BME280;55230;42.602;23.470;2022-10-26T10:50:51;94054.88;;;19.70;47.71
11053;BME280;55230;42.602;23.470;2022-10-26T10:53:20;93941.53;;;19.28;48.86
11053;BME280;55230;42.602;23.470;2022-10-26T10:56:02;94084.97;;;20.39;46.59
11053;BME280;55230;42.602;23.470;2022-10-26T10:58:39;94108.34;;;20.24;46.52
11053;BME280;55230;42.602;23.470;2022-10-26T11:01:12;94067.53;;;20.37;46.59
11053;BME280;55230;42.602;23.470;2022-10-26T11:03:46;94077.50;;;20.29;47.01
11053;BME280;55230;42.602;23.470;2022-10-26T11:06:18;93998.44;;;19.89;46.20
11053;BME280;55230;42.602;23.470;2022-10-26T11:08:48;94031.66;;;20.35;46.25
11053;BME280;55230;42.602;23.470;2022-10-26T11:11:18;93616.34;;;17.30;45.14
11053;BME280;55230;42.602;23.470;2022-10-26T11:13:52;94061.31;;;20.64;45.97
11053;BME280;55230;42.602;23.470;2022-10-26T11:16:23;94044.63;;;20.29;45.59
11053;BME280;55230;42.602;23.470;2022-10-26T11:18:56;93970.78;;;19.11;45.76
11053;BME280;55230;42.602;23.470;2022-10-26T11:21:27;94047.03;;;20.05;46.60
11053;BME280;55230;42.602;23.470;2022-10-26T11:24:10;94055.03;;;20.14;46.65
11053;BME280;55230;42.602;23.470;2022-10-26T11:26:41;94077.59;;;19.92;46.88
11053;BME280;55230;42.602;23.470;2022-10-26T11:29:18;94060.97;;;20.12;45.97
11053;BME280;55230;42.602;23.470;2022-10-26T11:31:50;93991.72;;;19.79;46.31
11053;BME280;55230;42.602;23.470;2022-10-26T11:34:25;94060.28;;;20.23;45.96
11053;BME280;55230;42.602;23.470;2022-10-26T11:36:58;94074.16;;;20.03;46.78
11053;BME280;55230;42.602;23.470;2022-10-26T11:39:35;94058.19;;;19.96;46.84
11053;BME280;55230;42.602;23.470;2022-10-26T11:42:08;94037.63;;;20.17;47.48
11053;BME280;55230;42.602;23.470;2022-10-26T11:44:42;93919.75;;;19.56;45.53
11053;BME280;55230;42.602;23.470;2022-10-26T11:47:13;94049.88;;;20.54;45.40
11053;BME280;55230;42.602;23.470;2022-10-26T11:49:45;93985.59;;;20.17;46.56
11053;BME280;55230;42.602;23.470;2022-10-26T11:52:17;93910.09;;;19.72;45.37
11053;BME280;55230;42.602;23.470;2022-10-26T11:54:49;94056.38;;;20.74;45.36
11053;BME280;55230;42.602;23.470;2022-10-26T11:57:20;93994.56;;;20.50;47.16
11053;BME280;55230;42.602;23.470;2022-10-26T11:59:52;94008.53;;;20.63;44.92
11053;BME280;55230;42.602;23.470;2022-10-26T12:02:22;93900.69;;;20.17;45.10
11053;BME280;55230;42.602;23.470;2022-10-26T12:04:52;94048.38;;;21.20;44.88
11053;BME280;55230;42.602;23.470;2022-10-26T12:07:25;94038.66;;;21.24;44.32
11053;BME280;55230;42.602;23.470;2022-10-26T12:09:53;94030.88;;;21.39;45.10
11053;BME280;55230;42.602;23.470;2022-10-26T12:12:27;93934.78;;;20.65;44.53
11053;BME280;55230;42.602;23.470;2022-10-26T12:15:08;93917.59;;;20.65;44.66
11053;BME280;55230;42.602;23.470;2022-10-26T12:17:45;93903.16;;;20.48;43.70
11053;BME280;55230;42.602;23.470;2022-10-26T12:20:41;94036.69;;;21.08;44.20
11053;BME280;55230;42.602;23.470;2022-10-26T12:23:16;93910.88;;;20.33;44.15
11053;BME280;55230;42.602;23.470;2022-10-26T12:25:43;93823.28;;;19.67;44.94
11053;BME280;55230;42.602;23.470;2022-10-26T12:28:39;94073.31;;;21.22;44.76
11053;BME280;55230;42.602;23.470;2022-10-26T12:34:11;94027.69;;;21.24;45.34
11053;BME280;55230;42.602;23.470;2022-10-26T12:39:33;94027.69;;;20.91;44.50
11053;BME280;55230;42.602;23.470;2022-10-26T12:42:14;94025.47;;;20.73;44.88
11053;BME280;55230;42.602;23.470;2022-10-26T12:45:13;93941.50;;;20.15;44.98
11053;BME280;55230;42.602;23.470;2022-10-26T12:48:02;94024.72;;;20.67;45.00
11053;BME280;55230;42.602;23.470;2022-10-26T12:50:30;94032.94;;;20.67;44.98
11053;BME280;55230;42.602;23.470;2022-10-26T12:52:59;93969.63;;;20.15;44.63
11053;BME280;55230;42.602;23.470;2022-10-26T12:56:02;93998.53;;;20.33;43.95
11053;BME280;55230;42.602;23.470;2022-10-26T13:01:40;94033.94;;;20.58;42.95
11053;BME280;55230;42.602;23.470;2022-10-26T13:04:25;94035.16;;;20.52;42.58
11053;BME280;55230;42.602;23.470;2022-10-26T13:07:13;94031.69;;;20.46;42.23
11053;BME280;55230;42.602;23.470;2022-10-26T13:09:44;94009.50;;;20.44;41.96
11053;BME280;55230;42.602;23.470;2022-10-26T13:12:11;94013.22;;;20.30;41.52
11053;BME280;55230;42.602;23.470;2022-10-26T13:14:41;94036.41;;;20.45;41.48
11053;BME280;55230;42.602;23.470;2022-10-26T13:17:23;94035.94;;;20.41;40.88
11053;BME280;55230;42.602;23.470;2022-10-26T13:19:54;93965.38;;;19.98;41.04